createdAt,value
2018-08-19T00:01:00.620Z,94732.88
2018-08-19T00:03:30.301Z,94735.63
2018-08-19T00:05:59.643Z,94734.40
2018-08-19T00:08:29.220Z,94733.41
2018-08-19T00:11:06.189Z,94730.67
2018-08-19T00:13:36.355Z,94734.56
2018-08-19T00:16:06.049Z,94728.77
2018-08-19T00:18:36.763Z,94734.50
2018-08-19T00:21:09.713Z,94734.22
2018-08-19T00:23:44.239Z,94736.09
2018-08-19T00:26:14.747Z,94725.98
2018-08-19T00:28:43.818Z,94732.61
2018-08-19T00:31:13.165Z,94733.34
2018-08-19T00:33:42.518Z,94735.52
2018-08-19T00:36:25.284Z,94736.66
2018-08-19T00:38:55.272Z,94741.34
2018-08-19T00:41:25.040Z,94748.14
2018-08-19T00:43:54.111Z,94745.59
2018-08-19T00:46:29.107Z,94744.34
2018-08-19T00:48:58.805Z,94742.00
2018-08-19T00:51:28.702Z,94743.87
2018-08-19T00:53:58.302Z,94747.86
2018-08-19T00:56:27.620Z,94744.28
2018-08-19T00:58:57.466Z,94747.52
2018-08-19T01:01:35.895Z,94749.67
2018-08-19T01:04:07.464Z,94745.70
2018-08-19T01:06:41.757Z,94750.37
2018-08-19T01:09:11.389Z,94746.08
2018-08-19T01:11:42.709Z,94750.00
2018-08-19T01:14:14.435Z,94756.20
2018-08-19T01:16:43.937Z,94760.05
2018-08-19T01:19:13.659Z,94763.31
2018-08-19T01:21:44.068Z,94763.52
2018-08-19T01:24:13.349Z,94766.41
2018-08-19T01:26:43.212Z,94769.74
2018-08-19T01:29:12.745Z,94773.25
2018-08-19T01:31:42.338Z,94773.91
2018-08-19T01:34:13.262Z,94778.16
2018-08-19T01:36:42.998Z,94773.38
2018-08-19T01:39:13.448Z,94768.41
2018-08-19T01:41:43.306Z,94766.06
2018-08-19T01:44:14.306Z,94774.16
2018-08-19T01:46:46.490Z,94776.27
2018-08-19T01:49:15.612Z,94780.48
2018-08-19T01:51:47.240Z,94775.36
2018-08-19T01:54:23.550Z,94771.02
2018-08-19T01:56:54.829Z,94769.95
2018-08-19T01:59:26.105Z,94776.14
2018-08-19T02:01:59.276Z,94778.59
2018-08-19T02:04:28.476Z,94782.86
2018-08-19T02:06:57.628Z,94777.34
2018-08-19T02:09:26.735Z,94775.23
2018-08-19T02:11:57.240Z,94781.69
2018-08-19T02:14:26.699Z,94781.45
2018-08-19T02:16:56.945Z,94784.02
2018-08-19T02:19:26.577Z,94784.92
2018-08-19T02:21:55.956Z,94782.31
2018-08-19T02:24:25.822Z,94783.22
2018-08-19T02:26:54.923Z,94779.13
2018-08-19T02:29:35.203Z,94777.87
2018-08-19T02:32:05.631Z,94775.47
2018-08-19T02:34:36.256Z,94772.34
2018-08-19T02:37:15.555Z,94771.48
2018-08-19T02:39:47.050Z,94773.86
2018-08-19T02:42:27.554Z,94769.42
2018-08-19T02:45:03.560Z,94775.41
2018-08-19T02:47:33.742Z,94781.21
2018-08-19T02:50:03.105Z,94771.63
2018-08-19T02:52:35.415Z,94776.23
2018-08-19T02:55:06.082Z,94776.34
2018-08-19T02:57:36.420Z,94778.81
2018-08-19T03:00:06.310Z,94777.80
2018-08-19T03:02:37.809Z,94774.76
2018-08-19T03:05:11.183Z,94769.61
2018-08-19T03:07:40.638Z,94772.70
2018-08-19T03:10:11.592Z,94770.27
2018-08-19T03:12:41.336Z,94764.88
2018-08-19T03:15:11.906Z,94770.03
2018-08-19T03:17:42.137Z,94771.00
2018-08-19T03:20:13.659Z,94774.09
2018-08-19T03:22:43.291Z,94771.38
2018-08-19T03:25:12.907Z,94769.60
2018-08-19T03:27:42.172Z,94780.33
2018-08-19T03:30:13.150Z,94778.88
2018-08-19T03:32:47.047Z,94778.59
2018-08-19T03:35:16.783Z,94779.44
2018-08-19T03:37:46.181Z,94781.88
2018-08-19T03:40:15.580Z,94784.05
2018-08-19T03:42:44.903Z,94784.88
2018-08-19T03:45:20.381Z,94778.80
2018-08-19T03:47:50.854Z,94783.64
2018-08-19T03:50:27.548Z,94787.23
2018-08-19T03:52:57.508Z,94783.59
2018-08-19T03:55:30.038Z,94785.42
2018-08-19T03:58:03.381Z,94787.90
2018-08-19T04:00:35.010Z,94791.45
2018-08-19T04:03:26.542Z,94795.20
2018-08-19T04:06:00.515Z,94793.05
2018-08-19T04:08:34.984Z,94794.41
2018-08-19T04:11:07.477Z,94795.31
2018-08-19T04:13:41.718Z,94790.31
2018-08-19T04:16:12.012Z,94795.73
2018-08-19T04:18:43.498Z,94797.26
2018-08-19T04:21:15.077Z,94800.09
2018-08-19T04:23:46.971Z,94802.42
2018-08-19T04:26:16.822Z,94807.66
2018-08-19T04:28:46.905Z,94808.67
2018-08-19T04:31:21.246Z,94805.64
2018-08-19T04:33:50.646Z,94812.21
2018-08-19T04:36:20.961Z,94812.88
2018-08-19T04:38:50.119Z,94818.52
2018-08-19T04:41:19.434Z,94818.46
2018-08-19T04:43:48.933Z,94819.55
2018-08-19T04:46:17.920Z,94818.75
2018-08-19T04:48:48.188Z,94820.63
2018-08-19T04:51:17.242Z,94825.06
2018-08-19T04:53:46.314Z,94817.37
2018-08-19T04:56:15.380Z,94822.38
2018-08-19T04:58:44.512Z,94820.28
2018-08-19T05:01:13.776Z,94819.32
2018-08-19T05:03:44.929Z,94827.13
2018-08-19T05:06:14.197Z,94826.92
2018-08-19T05:08:43.311Z,94831.45
2018-08-19T05:11:12.296Z,94831.92
2018-08-19T05:13:41.288Z,94832.36
2018-08-19T05:16:10.377Z,94829.71
2018-08-19T05:18:39.377Z,94826.72
2018-08-19T05:21:13.478Z,94837.59
2018-08-19T05:23:42.562Z,94827.63
2018-08-19T05:26:13.511Z,94828.70
2018-08-19T05:28:45.713Z,94827.31
2018-08-19T05:31:14.820Z,94824.92
2018-08-19T05:33:44.195Z,94824.09
2018-08-19T05:36:13.208Z,94824.95
2018-08-19T05:38:42.915Z,94827.38
2018-08-19T05:41:12.221Z,94822.62
2018-08-19T05:43:41.743Z,94822.61
2018-08-19T05:46:10.827Z,94820.45
2018-08-19T05:48:40.179Z,94822.26
2018-08-19T05:51:10.947Z,94818.06
2018-08-19T05:53:45.033Z,94823.97
2018-08-19T05:56:14.400Z,94821.45
2018-08-19T05:58:43.422Z,94820.11
2018-08-19T06:01:16.642Z,94819.32
2018-08-19T06:03:45.922Z,94821.68
2018-08-19T06:06:15.441Z,94818.14
2018-08-19T06:08:45.023Z,94820.52
2018-08-19T06:11:14.427Z,94822.50
2018-08-19T06:13:43.898Z,94822.31
2018-08-19T06:16:13.280Z,94821.58
2018-08-19T06:18:42.812Z,94819.38
2018-08-19T06:21:12.017Z,94818.76
2018-08-19T06:23:41.979Z,94820.98
2018-08-19T06:26:11.646Z,94817.72
2018-08-19T06:28:40.900Z,94810.45
2018-08-19T06:31:10.229Z,94815.35
2018-08-19T06:33:39.723Z,94813.91
2018-08-19T06:36:10.371Z,94810.66
2018-08-19T06:38:39.831Z,94815.50
2018-08-19T06:41:09.230Z,94815.47
2018-08-19T06:43:38.538Z,94812.23
2018-08-19T06:46:07.904Z,94813.94
2018-08-19T06:48:36.959Z,94810.87
2018-08-19T06:51:06.313Z,94813.30
2018-08-19T06:53:38.249Z,94810.16
2018-08-19T06:56:08.937Z,94812.07
2018-08-19T06:58:38.386Z,94802.47
2018-08-19T07:01:08.114Z,94801.39
2018-08-19T07:03:39.970Z,94799.03
2018-08-19T07:06:11.093Z,94794.85
2018-08-19T07:08:40.588Z,94790.89
2018-08-19T07:11:09.773Z,94792.51
2018-08-19T07:13:38.938Z,94789.84
2018-08-19T07:16:07.993Z,94784.56
2018-08-19T07:18:38.302Z,94785.52
2018-08-19T07:21:07.342Z,94782.28
2018-08-19T07:23:36.638Z,94775.97
2018-08-19T07:26:05.815Z,94783.11
2018-08-19T07:28:34.892Z,94778.98
2018-08-19T07:31:04.028Z,94780.91
2018-08-19T07:33:33.586Z,94777.43
2018-08-19T07:36:02.868Z,94780.13
2018-08-19T07:38:32.166Z,94781.69
2018-08-19T07:41:01.323Z,94774.03
2018-08-19T07:43:30.468Z,94783.80
2018-08-19T07:46:00.013Z,94775.70
2018-08-19T07:48:29.083Z,94777.01
2018-08-19T07:50:58.207Z,94770.54
2018-08-19T07:53:27.324Z,94764.71
2018-08-19T07:55:56.942Z,94764.63
2018-08-19T07:58:37.176Z,94763.02
2018-08-19T08:01:06.594Z,94763.38
2018-08-19T08:03:36.994Z,94764.47
2018-08-19T08:06:06.349Z,94753.80
2018-08-19T08:08:36.048Z,94755.34
2018-08-19T08:11:05.377Z,94748.83
2018-08-19T08:13:34.736Z,94752.03
2018-08-19T08:16:04.612Z,94751.73
2018-08-19T08:18:34.226Z,94749.11
2018-08-19T08:21:08.749Z,94747.00
2018-08-19T08:23:38.156Z,94747.86
2018-08-19T08:26:07.152Z,94745.14
2018-08-19T08:28:36.252Z,94743.73
2018-08-19T08:31:08.382Z,94742.66
2018-08-19T08:33:40.437Z,94736.59
2018-08-19T08:36:10.848Z,94740.28
2018-08-19T08:38:41.980Z,94732.52
2018-08-19T08:41:11.326Z,94732.17
2018-08-19T08:43:40.319Z,94725.78
2018-08-19T08:46:09.339Z,94721.22
2018-08-19T08:48:38.424Z,94712.20
2018-08-19T08:51:07.456Z,94704.02
2018-08-19T08:53:41.421Z,94709.89
2018-08-19T08:56:10.527Z,94703.83
2018-08-19T08:58:39.733Z,94700.62
2018-08-19T09:01:08.750Z,94695.76
2018-08-19T09:03:37.797Z,94690.50
2018-08-19T09:06:15.706Z,94690.63
2018-08-19T09:08:44.765Z,94696.09
2018-08-19T09:11:13.809Z,94689.78
2018-08-19T09:13:42.889Z,94679.48
2018-08-19T09:16:12.261Z,94680.30
2018-08-19T09:18:41.716Z,94678.01
2018-08-19T09:21:11.222Z,94674.16
2018-08-19T09:23:40.763Z,94675.66
2018-08-19T09:26:10.021Z,94669.36
2018-08-19T09:28:39.571Z,94665.91
2018-08-19T09:31:09.448Z,94664.02
2018-08-19T09:33:39.250Z,94662.58
2018-08-19T09:36:08.722Z,94663.30
2018-08-19T09:38:38.135Z,94656.45
2018-08-19T09:41:07.554Z,94654.61
2018-08-19T09:43:37.003Z,94648.38
2018-08-19T09:46:06.715Z,94645.38
2018-08-19T09:48:36.194Z,94644.75
2018-08-19T09:51:10.531Z,94632.42
2018-08-19T09:53:40.309Z,94633.44
2018-08-19T09:56:10.611Z,94634.42
2018-08-19T09:58:40.586Z,94627.47
2018-08-19T10:01:15.000Z,94623.22
2018-08-19T10:03:44.405Z,94627.81
2018-08-19T10:06:14.658Z,94625.27
2018-08-19T10:08:44.030Z,94620.09
2018-08-19T10:11:13.376Z,94618.83
2018-08-19T10:13:42.834Z,94613.74
2018-08-19T10:16:12.372Z,94616.16
2018-08-19T10:18:41.832Z,94601.92
2018-08-19T10:21:16.398Z,94609.55
2018-08-19T10:23:45.823Z,94598.73
2018-08-19T10:26:15.066Z,94592.34
2018-08-19T10:28:44.514Z,94587.39
2018-08-19T10:31:19.284Z,94598.27
2018-08-19T10:33:51.212Z,94590.66
2018-08-19T10:36:20.714Z,94592.80
2018-08-19T10:38:49.992Z,94595.02
2018-08-19T10:41:19.519Z,94583.50
2018-08-19T10:43:48.792Z,94582.98
2018-08-19T10:46:18.543Z,94573.84
2018-08-19T10:48:49.552Z,94569.42
2018-08-19T10:51:19.066Z,94571.83
2018-08-19T10:53:48.476Z,94563.84
2018-08-19T10:56:17.863Z,94562.79
2018-08-19T10:58:57.575Z,94562.13
2018-08-19T11:01:27.187Z,94560.14
2018-08-19T11:03:56.599Z,94558.31
2018-08-19T11:06:26.313Z,94561.19
2018-08-19T11:08:57.944Z,94557.27
2018-08-19T11:11:32.322Z,94550.31
2018-08-19T11:14:03.530Z,94546.52
2018-08-19T11:16:32.932Z,94536.50
2018-08-19T11:19:02.409Z,94535.20
2018-08-19T11:24:26.741Z,94537.11
2018-08-19T11:27:01.787Z,94528.05
2018-08-19T11:29:33.905Z,94526.73
2018-08-19T11:32:03.378Z,94525.26
2018-08-19T11:34:32.755Z,94525.05
2018-08-19T11:37:02.164Z,94519.11
2018-08-19T11:39:36.509Z,94522.48
2018-08-19T11:42:05.826Z,94516.67
2018-08-19T11:44:36.128Z,94515.89
2018-08-19T11:47:05.421Z,94517.96
2018-08-19T11:49:34.944Z,94523.56
2018-08-19T11:52:05.266Z,94515.05
2018-08-19T11:54:35.208Z,94515.63
2018-08-19T11:57:12.715Z,94513.73
2018-08-19T11:59:44.205Z,94511.97
2018-08-19T12:02:17.078Z,94513.61
2018-08-19T12:04:46.928Z,94516.06
2018-08-19T12:07:16.637Z,94498.42
2018-08-19T12:10:01.358Z,94495.61
2018-08-19T12:12:46.049Z,94496.84
2018-08-19T12:15:16.502Z,94493.79
2018-08-19T12:17:46.227Z,94486.88
2018-08-19T12:20:23.314Z,94491.02
2018-08-19T12:22:53.019Z,94486.89
2018-08-19T12:25:22.438Z,94485.80
2018-08-19T12:27:51.559Z,94484.73
2018-08-19T12:30:20.647Z,94484.38
2018-08-19T12:32:49.852Z,94479.06
2018-08-19T12:35:19.365Z,94473.94
2018-08-19T12:37:49.223Z,94475.73
2018-08-19T12:40:18.474Z,94475.17
2018-08-19T12:42:53.784Z,94475.25
2018-08-19T12:45:24.389Z,94466.25
2018-08-19T12:47:53.915Z,94468.41
2018-08-19T12:50:24.697Z,94460.06
2018-08-19T12:52:54.044Z,94463.97
2018-08-19T12:55:23.326Z,94462.54
2018-08-19T12:58:01.773Z,94456.46
2018-08-19T13:00:31.154Z,94449.30
2018-08-19T13:03:00.453Z,94448.11
2018-08-19T13:05:29.858Z,94443.67
2018-08-19T13:07:59.543Z,94444.23
2018-08-19T13:10:39.181Z,94439.13
2018-08-19T13:13:08.576Z,94439.84
2018-08-19T13:15:37.987Z,94440.92
2018-08-19T13:18:07.365Z,94439.13
2018-08-19T13:20:36.578Z,94429.74
2018-08-19T13:23:06.291Z,94426.49
2018-08-19T13:25:35.684Z,94420.45
2018-08-19T13:28:05.261Z,94424.20
2018-08-19T13:30:34.641Z,94418.83
2018-08-19T13:33:04.343Z,94413.47
2018-08-19T13:35:33.816Z,94414.94
2018-08-19T13:38:03.168Z,94408.17
2018-08-19T13:40:32.572Z,94399.02
2018-08-19T13:43:02.209Z,94409.86
2018-08-19T13:45:31.833Z,94406.08
2018-08-19T13:48:00.928Z,94401.57
2018-08-19T13:50:29.936Z,94399.59
2018-08-19T13:52:58.996Z,94392.20
2018-08-19T13:55:28.837Z,94390.57
2018-08-19T13:57:57.997Z,94389.83
2018-08-19T14:00:33.202Z,94391.53
2018-08-19T14:03:02.678Z,94397.63
2018-08-19T14:05:32.129Z,94389.70
2018-08-19T14:08:01.549Z,94389.80
2018-08-19T14:10:30.859Z,94376.14
2018-08-19T14:13:00.243Z,94381.03
2018-08-19T14:15:29.431Z,94374.96
2018-08-19T14:17:58.508Z,94380.34
2018-08-19T14:20:27.738Z,94377.02
2018-08-19T14:22:56.790Z,94375.84
2018-08-19T14:25:25.822Z,94368.36
2018-08-19T14:27:54.775Z,94366.63
2018-08-19T14:30:24.102Z,94372.42
2018-08-19T14:32:53.096Z,94367.25
2018-08-19T14:35:22.174Z,94361.11
2018-08-19T14:37:51.170Z,94363.40
2018-08-19T14:40:20.386Z,94361.72
2018-08-19T14:42:50.466Z,94356.53
2018-08-19T14:45:19.547Z,94360.56
2018-08-19T14:47:49.726Z,94355.97
2018-08-19T14:50:20.350Z,94353.83
2018-08-19T14:52:49.615Z,94354.07
2018-08-19T14:55:19.739Z,94348.47
2018-08-19T14:57:49.827Z,94348.08
2018-08-19T15:00:19.255Z,94353.83
2018-08-19T15:02:48.673Z,94351.54
2018-08-19T15:05:20.744Z,94346.83
2018-08-19T15:07:50.377Z,94350.71
2018-08-19T15:10:22.589Z,94359.08
2018-08-19T15:12:51.942Z,94354.25
2018-08-19T15:15:21.101Z,94349.15
2018-08-19T15:17:57.156Z,94345.64
2018-08-19T15:20:35.893Z,94342.54
2018-08-19T15:23:20.189Z,94343.10
2018-08-19T15:25:49.595Z,94340.52
2018-08-19T15:28:19.159Z,94339.00
2018-08-19T15:30:48.245Z,94341.36
2018-08-19T15:33:17.716Z,94332.19
2018-08-19T15:35:47.253Z,94324.27
2018-08-19T15:38:16.629Z,94330.22
2018-08-19T15:40:48.864Z,94328.62
2018-08-19T15:43:18.566Z,94332.27
2018-08-19T15:45:47.894Z,94332.05
2018-08-19T15:48:17.518Z,94322.87
2018-08-19T15:50:46.749Z,94322.31
2018-08-19T15:53:17.831Z,94325.07
2018-08-19T15:55:47.245Z,94318.57
2018-08-19T15:58:16.847Z,94319.73
2018-08-19T16:00:46.312Z,94313.42
2018-08-19T16:03:15.781Z,94313.37
2018-08-19T16:05:44.827Z,94316.08
2018-08-19T16:08:13.985Z,94311.95
2018-08-19T16:10:43.897Z,94312.27
2018-08-19T16:13:13.596Z,94308.27
2018-08-19T16:15:43.007Z,94309.75
2018-08-19T16:18:12.125Z,94307.84
2018-08-19T16:20:44.612Z,94300.62
2018-08-19T16:23:13.941Z,94309.16
2018-08-19T16:25:43.236Z,94309.57
2018-08-19T16:28:12.548Z,94309.45
2018-08-19T16:30:41.572Z,94310.70
2018-08-19T16:33:11.270Z,94306.97
2018-08-19T16:35:41.266Z,94313.13
2018-08-19T16:38:10.483Z,94312.55
2018-08-19T16:40:39.888Z,94315.80
2018-08-19T16:43:09.099Z,94307.95
2018-08-19T16:45:38.234Z,94312.02
2018-08-19T16:48:07.564Z,94311.59
2018-08-19T16:50:36.687Z,94310.46
2018-08-19T16:53:05.677Z,94312.25
2018-08-19T16:55:34.714Z,94311.80
2018-08-19T16:58:03.766Z,94316.74
2018-08-19T17:00:32.979Z,94319.25
2018-08-19T17:03:03.065Z,94327.63
2018-08-19T17:05:34.251Z,94322.96
2018-08-19T17:08:03.494Z,94323.44
2018-08-19T17:10:33.185Z,94320.19
2018-08-19T17:13:03.268Z,94326.27
2018-08-19T17:15:32.644Z,94332.27
2018-08-19T17:18:02.274Z,94330.23
2018-08-19T17:20:31.821Z,94334.02
2018-08-19T17:23:01.359Z,94332.52
2018-08-19T17:25:30.978Z,94334.80
2018-08-19T17:28:05.780Z,94342.25
2018-08-19T17:30:35.185Z,94337.59
2018-08-19T17:33:08.772Z,94340.92
2018-08-19T17:35:39.924Z,94344.61
2018-08-19T17:38:09.749Z,94346.15
2018-08-19T17:40:39.125Z,94353.30
2018-08-19T17:43:08.267Z,94360.63
2018-08-19T17:45:37.465Z,94363.34
2018-08-19T17:48:06.540Z,94367.53
2018-08-19T17:50:37.997Z,94367.61
2018-08-19T17:53:07.921Z,94373.75
2018-08-19T17:55:36.955Z,94375.45
2018-08-19T17:58:06.237Z,94380.11
2018-08-19T18:00:35.654Z,94377.16
2018-08-19T18:03:05.240Z,94383.89
2018-08-19T18:05:34.713Z,94381.59
2018-08-19T18:08:04.037Z,94386.41
2018-08-19T18:10:33.413Z,94390.83
2018-08-19T18:13:02.813Z,94390.09
2018-08-19T18:15:32.361Z,94391.45
2018-08-19T18:18:05.714Z,94394.42
2018-08-19T18:20:36.606Z,94385.22
2018-08-19T18:23:12.974Z,94394.59
2018-08-19T18:25:43.748Z,94392.91
2018-08-19T18:28:16.942Z,94399.03
2018-08-19T18:30:48.929Z,94406.03
2018-08-19T18:33:18.055Z,94402.62
2018-08-19T18:35:47.306Z,94407.04
2018-08-19T18:38:27.941Z,94411.64
2018-08-19T18:40:58.296Z,94416.56
2018-08-19T18:43:27.785Z,94420.26
2018-08-19T18:45:57.391Z,94423.45
2018-08-19T18:48:26.743Z,94426.74
2018-08-19T18:50:56.955Z,94435.09
2018-08-19T18:53:28.294Z,94430.14
2018-08-19T18:55:57.901Z,94434.67
2018-08-19T18:58:28.189Z,94437.44
2018-08-19T19:01:00.986Z,94436.87
2018-08-19T19:03:30.323Z,94444.19
2018-08-19T19:05:59.424Z,94446.99
2018-08-19T19:08:28.506Z,94449.89
2018-08-19T19:11:02.611Z,94451.95
2018-08-19T19:13:31.794Z,94449.11
2018-08-19T19:16:01.048Z,94450.98
2018-08-19T19:18:30.357Z,94456.96
2018-08-19T19:21:03.416Z,94457.22
2018-08-19T19:23:36.751Z,94463.62
2018-08-19T19:26:06.899Z,94456.61
2018-08-19T19:28:36.985Z,94458.78
2018-08-19T19:31:12.603Z,94455.62
2018-08-19T19:33:42.100Z,94459.55
2018-08-19T19:36:16.162Z,94459.77
2018-08-19T19:38:50.678Z,94455.19
2018-08-19T19:41:26.641Z,94452.86
2018-08-19T19:43:56.095Z,94454.78
2018-08-19T19:46:25.672Z,94459.33
2018-08-19T19:48:55.134Z,94459.98
2018-08-19T19:51:24.530Z,94456.27
2018-08-19T19:53:53.846Z,94458.67
2018-08-19T19:56:23.506Z,94458.14
2018-08-19T19:58:53.490Z,94459.91
2018-08-19T20:01:22.638Z,94464.84
2018-08-19T20:03:55.899Z,94467.30
2018-08-19T20:06:25.438Z,94468.48
2018-08-19T20:08:55.191Z,94470.96
2018-08-19T20:11:31.218Z,94474.88
2018-08-19T20:14:02.252Z,94477.73
2018-08-19T20:16:32.711Z,94484.09
2018-08-19T20:19:02.579Z,94475.72
2018-08-19T20:21:35.401Z,94475.37
2018-08-19T20:24:07.674Z,94479.66
2018-08-19T20:26:37.319Z,94479.85
2018-08-19T20:29:07.874Z,94483.64
2018-08-19T20:31:39.040Z,94481.36
2018-08-19T20:34:08.665Z,94486.91
2018-08-19T20:36:40.347Z,94487.45
2018-08-19T20:39:12.405Z,94481.62
2018-08-19T20:41:42.399Z,94484.63
2018-08-19T20:44:12.274Z,94491.41
2018-08-19T20:46:47.500Z,94494.66
2018-08-19T20:49:16.980Z,94499.95
2018-08-19T20:51:46.608Z,94504.69
2018-08-19T20:54:16.663Z,94508.20
2018-08-19T20:56:48.009Z,94505.09
2018-08-19T20:59:24.894Z,94506.99
2018-08-19T21:01:56.051Z,94511.45
2018-08-19T21:04:25.438Z,94510.10
2018-08-19T21:06:55.028Z,94514.16
2018-08-19T21:09:25.707Z,94518.61
2018-08-19T21:11:55.518Z,94516.77
2018-08-19T21:14:24.935Z,94516.50
2018-08-19T21:16:54.430Z,94525.77
2018-08-19T21:19:23.613Z,94529.72
2018-08-19T21:21:53.534Z,94529.45
2018-08-19T21:24:23.002Z,94536.31
2018-08-19T21:26:57.307Z,94529.70
2018-08-19T21:29:26.757Z,94529.98
2018-08-19T21:31:56.338Z,94534.19
2018-08-19T21:34:26.671Z,94536.03
2018-08-19T21:36:55.972Z,94527.06
2018-08-19T21:39:25.322Z,94528.37
2018-08-19T21:41:55.515Z,94529.16
2018-08-19T21:44:24.689Z,94536.03
2018-08-19T21:46:53.850Z,94542.08
2018-08-19T21:49:23.032Z,94547.58
2018-08-19T21:51:52.228Z,94548.63
2018-08-19T21:54:21.478Z,94549.94
2018-08-19T21:56:51.625Z,94552.30
2018-08-19T21:59:24.149Z,94562.59
2018-08-19T22:01:57.095Z,94561.17
2018-08-19T22:04:26.756Z,94561.97
2018-08-19T22:06:56.460Z,94560.92
2018-08-19T22:09:33.669Z,94559.98
2018-08-19T22:12:03.353Z,94562.16
2018-08-19T22:14:33.433Z,94555.88
2018-08-19T22:17:08.695Z,94563.52
2018-08-19T22:19:38.079Z,94564.07
2018-08-19T22:22:07.354Z,94554.05
2018-08-19T22:24:36.567Z,94560.02
2018-08-19T22:27:10.809Z,94557.61
2018-08-19T22:29:40.233Z,94557.63
2018-08-19T22:32:09.343Z,94557.64
2018-08-19T22:34:39.182Z,94555.75
2018-08-19T22:37:08.495Z,94561.47
2018-08-19T22:39:37.827Z,94558.47
2018-08-19T22:42:07.440Z,94561.73
2018-08-19T22:44:36.835Z,94560.64
2018-08-19T22:47:06.307Z,94555.56
2018-08-19T22:49:35.490Z,94551.13
2018-08-19T22:52:36.632Z,94552.18
2018-08-19T22:55:05.945Z,94550.63
2018-08-19T22:57:35.297Z,94554.22
2018-08-19T23:00:07.077Z,94548.45
2018-08-19T23:02:36.581Z,94546.70
2018-08-19T23:05:05.909Z,94551.13
2018-08-19T23:07:36.949Z,94549.52
2018-08-19T23:10:09.674Z,94549.80
2018-08-19T23:12:41.016Z,94552.44
2018-08-19T23:15:21.686Z,94547.56
2018-08-19T23:17:51.224Z,94547.97
2018-08-19T23:20:20.738Z,94545.88
2018-08-19T23:22:50.204Z,94548.75
2018-08-19T23:25:19.524Z,94545.22
2018-08-19T23:27:48.981Z,94550.59
2018-08-19T23:30:18.333Z,94543.91
2018-08-19T23:32:47.758Z,94538.90
2018-08-19T23:35:17.099Z,94537.07
2018-08-19T23:37:46.596Z,94528.84
2018-08-19T23:40:15.993Z,94529.91
2018-08-19T23:42:46.320Z,94531.92
2018-08-19T23:45:15.720Z,94525.88
2018-08-19T23:47:45.108Z,94522.73
2018-08-19T23:50:14.579Z,94525.11
2018-08-19T23:52:44.081Z,94514.75
2018-08-19T23:55:13.563Z,94521.34
2018-08-19T23:57:42.892Z,94518.70
